sensor_id;sensor_type;location;lat;lon;timestamp;P1;durP1;ratioP1;P2;durP2;ratioP2
25721;SDS011;13578;53.450;15.496;2023-03-01T00:02:26;23.42;;;13.07;;
25721;SDS011;13578;53.450;15.496;2023-03-01T00:05:26;30.10;;;14.05;;
25721;SDS011;13578;53.450;15.496;2023-03-01T00:08:27;27.75;;;14.10;;
25721;SDS011;13578;53.450;15.496;2023-03-01T00:11:29;26.52;;;13.88;;
25721;SDS011;13578;53.450;15.496;2023-03-01T00:14:31;32.10;;;14.30;;
25721;SDS011;13578;53.450;15.496;2023-03-01T00:17:31;30.30;;;14.13;;
25721;SDS011;13578;53.450;15.496;2023-03-01T00:20:32;29.63;;;13.90;;
25721;SDS011;13578;53.450;15.496;2023-03-01T00:23:33;19.42;;;12.10;;
25721;SDS011;13578;53.450;15.496;2023-03-01T00:26:35;28.50;;;14.70;;
25721;SDS011;13578;53.450;15.496;2023-03-01T00:29:36;28.13;;;13.88;;
25721;SDS011;13578;53.450;15.496;2023-03-01T00:32:36;29.08;;;14.38;;
25721;SDS011;13578;53.450;15.496;2023-03-01T00:35:37;23.20;;;13.25;;
25721;SDS011;13578;53.450;15.496;2023-03-01T00:38:38;32.80;;;14.68;;
25721;SDS011;13578;53.450;15.496;2023-03-01T00:41:40;24.75;;;13.30;;
25721;SDS011;13578;53.450;15.496;2023-03-01T00:44:42;29.38;;;13.30;;
25721;SDS011;13578;53.450;15.496;2023-03-01T00:47:43;21.73;;;12.90;;
25721;SDS011;13578;53.450;15.496;2023-03-01T00:50:44;33.70;;;13.77;;
25721;SDS011;13578;53.450;15.496;2023-03-01T00:53:44;27.83;;;13.07;;
25721;SDS011;13578;53.450;15.496;2023-03-01T00:56:46;30.90;;;12.98;;
25721;SDS011;13578;53.450;15.496;2023-03-01T00:59:46;30.58;;;12.85;;
25721;SDS011;13578;53.450;15.496;2023-03-01T01:02:47;25.23;;;11.05;;
25721;SDS011;13578;53.450;15.496;2023-03-01T01:05:48;24.05;;;11.60;;
25721;SDS011;13578;53.450;15.496;2023-03-01T01:08:49;25.10;;;13.00;;
25721;SDS011;13578;53.450;15.496;2023-03-01T01:11:50;21.73;;;12.00;;
25721;SDS011;13578;53.450;15.496;2023-03-01T01:14:52;24.85;;;13.40;;
25721;SDS011;13578;53.450;15.496;2023-03-01T01:17:52;23.15;;;12.13;;
25721;SDS011;13578;53.450;15.496;2023-03-01T01:20:53;28.73;;;13.07;;
25721;SDS011;13578;53.450;15.496;2023-03-01T01:23:54;25.35;;;13.45;;
25721;SDS011;13578;53.450;15.496;2023-03-01T01:26:55;28.67;;;14.07;;
25721;SDS011;13578;53.450;15.496;2023-03-01T01:29:55;32.03;;;11.75;;
25721;SDS011;13578;53.450;15.496;2023-03-01T01:32:56;20.10;;;11.30;;
25721;SDS011;13578;53.450;15.496;2023-03-01T01:35:57;29.15;;;12.77;;
25721;SDS011;13578;53.450;15.496;2023-03-01T01:38:58;24.92;;;11.65;;
25721;SDS011;13578;53.450;15.496;2023-03-01T01:41:59;39.17;;;14.73;;
25721;SDS011;13578;53.450;15.496;2023-03-01T01:48:24;22.83;;;12.75;;
25721;SDS011;13578;53.450;15.496;2023-03-01T01:51:40;27.50;;;13.60;;
25721;SDS011;13578;53.450;15.496;2023-03-01T01:54:45;41.58;;;15.10;;
25721;SDS011;13578;53.450;15.496;2023-03-01T01:58:09;29.80;;;13.52;;
25721;SDS011;13578;53.450;15.496;2023-03-01T02:01:13;33.70;;;14.63;;
25721;SDS011;13578;53.450;15.496;2023-03-01T02:04:14;27.23;;;14.05;;
25721;SDS011;13578;53.450;15.496;2023-03-01T02:07:16;34.33;;;14.30;;
25721;SDS011;13578;53.450;15.496;2023-03-01T02:10:20;47.53;;;16.15;;
25721;SDS011;13578;53.450;15.496;2023-03-01T02:13:22;36.00;;;16.15;;
25721;SDS011;13578;53.450;15.496;2023-03-01T02:16:23;45.60;;;16.73;;
25721;SDS011;13578;53.450;15.496;2023-03-01T02:19:44;37.85;;;16.48;;
25721;SDS011;13578;53.450;15.496;2023-03-01T02:22:49;31.85;;;15.52;;
25721;SDS011;13578;53.450;15.496;2023-03-01T02:29:19;37.60;;;16.05;;
25721;SDS011;13578;53.450;15.496;2023-03-01T02:32:21;37.95;;;16.52;;
25721;SDS011;13578;53.450;15.496;2023-03-01T02:35:25;44.85;;;19.65;;
25721;SDS011;13578;53.450;15.496;2023-03-01T02:38:25;49.33;;;17.83;;
25721;SDS011;13578;53.450;15.496;2023-03-01T02:41:27;36.97;;;16.92;;
25721;SDS011;13578;53.450;15.496;2023-03-01T02:44:31;45.85;;;17.05;;
25721;SDS011;13578;53.450;15.496;2023-03-01T02:47:31;45.65;;;16.60;;
25721;SDS011;13578;53.450;15.496;2023-03-01T02:50:43;45.60;;;16.23;;
25721;SDS011;13578;53.450;15.496;2023-03-01T02:54:18;41.17;;;17.08;;
25721;SDS011;13578;53.450;15.496;2023-03-01T02:57:29;41.83;;;17.20;;
25721;SDS011;13578;53.450;15.496;2023-03-01T03:00:42;42.67;;;16.48;;
25721;SDS011;13578;53.450;15.496;2023-03-01T03:03:46;34.38;;;15.95;;
25721;SDS011;13578;53.450;15.496;2023-03-01T03:06:48;36.83;;;16.27;;
25721;SDS011;13578;53.450;15.496;2023-03-01T03:09:50;36.65;;;17.55;;
25721;SDS011;13578;53.450;15.496;2023-03-01T03:12:54;39.35;;;15.45;;
25721;SDS011;13578;53.450;15.496;2023-03-01T03:15:57;43.13;;;17.58;;
25721;SDS011;13578;53.450;15.496;2023-03-01T03:18:58;34.40;;;13.93;;
25721;SDS011;13578;53.450;15.496;2023-03-01T03:22:05;34.53;;;15.48;;
25721;SDS011;13578;53.450;15.496;2023-03-01T03:25:08;33.78;;;14.60;;
25721;SDS011;13578;53.450;15.496;2023-03-01T03:28:11;28.63;;;14.95;;
25721;SDS011;13578;53.450;15.496;2023-03-01T03:31:12;37.40;;;17.45;;
25721;SDS011;13578;53.450;15.496;2023-03-01T03:34:12;45.17;;;17.60;;
25721;SDS011;13578;53.450;15.496;2023-03-01T03:37:17;44.33;;;19.70;;
25721;SDS011;13578;53.450;15.496;2023-03-01T03:40:40;45.17;;;16.88;;
25721;SDS011;13578;53.450;15.496;2023-03-01T03:43:45;43.50;;;17.70;;
25721;SDS011;13578;53.450;15.496;2023-03-01T03:46:46;40.55;;;16.65;;
25721;SDS011;13578;53.450;15.496;2023-03-01T03:49:46;34.10;;;15.88;;
25721;SDS011;13578;53.450;15.496;2023-03-01T03:52:47;35.85;;;16.73;;
25721;SDS011;13578;53.450;15.496;2023-03-01T03:55:48;32.33;;;15.45;;
25721;SDS011;13578;53.450;15.496;2023-03-01T03:58:52;44.53;;;16.48;;
25721;SDS011;13578;53.450;15.496;2023-03-01T04:01:53;39.63;;;16.45;;
25721;SDS011;13578;53.450;15.496;2023-03-01T04:04:53;35.22;;;15.63;;
25721;SDS011;13578;53.450;15.496;2023-03-01T04:07:54;43.55;;;15.98;;
25721;SDS011;13578;53.450;15.496;2023-03-01T04:11:08;37.15;;;16.73;;
25721;SDS011;13578;53.450;15.496;2023-03-01T04:14:27;31.42;;;15.00;;
25721;SDS011;13578;53.450;15.496;2023-03-01T04:17:28;34.53;;;15.40;;
25721;SDS011;13578;53.450;15.496;2023-03-01T04:20:29;36.03;;;16.42;;
25721;SDS011;13578;53.450;15.496;2023-03-01T04:23:33;31.40;;;14.70;;
25721;SDS011;13578;53.450;15.496;2023-03-01T04:26:35;32.08;;;15.10;;
25721;SDS011;13578;53.450;15.496;2023-03-01T04:29:35;35.97;;;14.85;;
25721;SDS011;13578;53.450;15.496;2023-03-01T04:32:36;29.38;;;14.23;;
25721;SDS011;13578;53.450;15.496;2023-03-01T04:35:37;41.35;;;16.90;;
25721;SDS011;13578;53.450;15.496;2023-03-01T04:38:39;38.58;;;15.45;;
25721;SDS011;13578;53.450;15.496;2023-03-01T04:41:40;36.22;;;16.80;;
25721;SDS011;13578;53.450;15.496;2023-03-01T04:44:41;40.97;;;16.38;;
25721;SDS011;13578;53.450;15.496;2023-03-01T04:47:42;45.60;;;17.50;;
25721;SDS011;13578;53.450;15.496;2023-03-01T04:50:44;43.88;;;17.25;;
25721;SDS011;13578;53.450;15.496;2023-03-01T04:53:45;39.78;;;17.63;;
25721;SDS011;13578;53.450;15.496;2023-03-01T04:56:45;39.30;;;16.73;;
25721;SDS011;13578;53.450;15.496;2023-03-01T04:59:46;48.97;;;19.30;;
25721;SDS011;13578;53.450;15.496;2023-03-01T05:02:51;48.88;;;21.42;;
25721;SDS011;13578;53.450;15.496;2023-03-01T05:05:53;38.85;;;18.10;;
25721;SDS011;13578;53.450;15.496;2023-03-01T05:08:53;46.53;;;17.75;;
25721;SDS011;13578;53.450;15.496;2023-03-01T05:11:54;40.03;;;16.50;;
25721;SDS011;13578;53.450;15.496;2023-03-01T05:14:54;35.08;;;14.80;;
25721;SDS011;13578;53.450;15.496;2023-03-01T05:17:56;24.33;;;12.27;;
25721;SDS011;13578;53.450;15.496;2023-03-01T05:21:03;34.60;;;14.40;;
25721;SDS011;13578;53.450;15.496;2023-03-01T05:24:06;36.42;;;15.32;;
25721;SDS011;13578;53.450;15.496;2023-03-01T05:27:11;35.90;;;16.67;;
25721;SDS011;13578;53.450;15.496;2023-03-01T05:30:12;40.30;;;17.58;;
25721;SDS011;13578;53.450;15.496;2023-03-01T05:33:13;36.08;;;17.65;;
25721;SDS011;13578;53.450;15.496;2023-03-01T05:36:14;42.85;;;17.73;;
25721;SDS011;13578;53.450;15.496;2023-03-01T05:39:15;41.42;;;17.70;;
25721;SDS011;13578;53.450;15.496;2023-03-01T05:42:16;39.97;;;17.73;;
25721;SDS011;13578;53.450;15.496;2023-03-01T05:45:17;44.00;;;17.17;;
25721;SDS011;13578;53.450;15.496;2023-03-01T05:48:19;27.60;;;15.13;;
25721;SDS011;13578;53.450;15.496;2023-03-01T05:51:19;34.53;;;16.10;;
25721;SDS011;13578;53.450;15.496;2023-03-01T05:54:22;33.97;;;16.65;;
25721;SDS011;13578;53.450;15.496;2023-03-01T05:57:23;43.47;;;17.27;;
25721;SDS011;13578;53.450;15.496;2023-03-01T06:00:23;39.50;;;16.42;;
25721;SDS011;13578;53.450;15.496;2023-03-01T06:03:24;43.13;;;17.52;;
25721;SDS011;13578;53.450;15.496;2023-03-01T06:06:25;39.80;;;16.83;;
25721;SDS011;13578;53.450;15.496;2023-03-01T06:09:26;45.53;;;17.40;;
25721;SDS011;13578;53.450;15.496;2023-03-01T06:12:29;54.28;;;19.10;;
25721;SDS011;13578;53.450;15.496;2023-03-01T06:15:33;44.17;;;19.83;;
25721;SDS011;13578;53.450;15.496;2023-03-01T06:18:34;45.05;;;18.98;;
25721;SDS011;13578;53.450;15.496;2023-03-01T06:21:35;45.65;;;18.05;;
25721;SDS011;13578;53.450;15.496;2023-03-01T06:24:36;41.83;;;19.08;;
25721;SDS011;13578;53.450;15.496;2023-03-01T06:27:36;47.03;;;19.70;;
25721;SDS011;13578;53.450;15.496;2023-03-01T06:30:37;56.47;;;19.65;;
25721;SDS011;13578;53.450;15.496;2023-03-01T06:33:38;48.05;;;17.73;;
25721;SDS011;13578;53.450;15.496;2023-03-01T06:36:39;35.25;;;18.98;;
25721;SDS011;13578;53.450;15.496;2023-03-01T06:39:39;48.25;;;17.50;;
25721;SDS011;13578;53.450;15.496;2023-03-01T06:42:41;45.38;;;18.92;;
25721;SDS011;13578;53.450;15.496;2023-03-01T06:45:43;51.25;;;18.30;;
25721;SDS011;13578;53.450;15.496;2023-03-01T06:48:43;37.85;;;18.85;;
25721;SDS011;13578;53.450;15.496;2023-03-01T06:51:44;46.58;;;19.55;;
25721;SDS011;13578;53.450;15.496;2023-03-01T06:54:44;46.78;;;17.90;;
25721;SDS011;13578;53.450;15.496;2023-03-01T06:57:45;39.25;;;17.33;;
25721;SDS011;13578;53.450;15.496;2023-03-01T07:00:46;45.08;;;19.52;;
25721;SDS011;13578;53.450;15.496;2023-03-01T07:03:46;32.63;;;16.77;;
25721;SDS011;13578;53.450;15.496;2023-03-01T07:06:47;42.28;;;18.80;;
25721;SDS011;13578;53.450;15.496;2023-03-01T07:09:54;47.92;;;19.02;;
25721;SDS011;13578;53.450;15.496;2023-03-01T07:12:58;41.60;;;18.10;;
25721;SDS011;13578;53.450;15.496;2023-03-01T07:16:02;38.35;;;18.20;;
25721;SDS011;13578;53.450;15.496;2023-03-01T07:19:03;33.05;;;15.27;;
25721;SDS011;13578;53.450;15.496;2023-03-01T07:22:05;35.65;;;14.80;;
25721;SDS011;13578;53.450;15.496;2023-03-01T07:25:08;35.70;;;15.35;;
25721;SDS011;13578;53.450;15.496;2023-03-01T07:28:10;32.15;;;15.05;;
25721;SDS011;13578;53.450;15.496;2023-03-01T07:31:10;35.10;;;15.40;;
25721;SDS011;13578;53.450;15.496;2023-03-01T07:34:11;39.38;;;14.35;;
25721;SDS011;13578;53.450;15.496;2023-03-01T07:37:12;28.30;;;14.10;;
25721;SDS011;13578;53.450;15.496;2023-03-01T07:40:12;30.67;;;14.13;;
25721;SDS011;13578;53.450;15.496;2023-03-01T07:43:13;24.65;;;14.05;;
25721;SDS011;13578;53.450;15.496;2023-03-01T07:46:13;34.17;;;14.65;;
25721;SDS011;13578;53.450;15.496;2023-03-01T07:49:14;24.52;;;12.82;;
25721;SDS011;13578;53.450;15.496;2023-03-01T07:52:15;28.90;;;12.75;;
25721;SDS011;13578;53.450;15.496;2023-03-01T07:55:15;28.40;;;14.23;;
25721;SDS011;13578;53.450;15.496;2023-03-01T07:58:16;34.10;;;14.63;;
25721;SDS011;13578;53.450;15.496;2023-03-01T08:01:18;33.30;;;12.93;;
25721;SDS011;13578;53.450;15.496;2023-03-01T08:04:20;29.85;;;12.95;;
25721;SDS011;13578;53.450;15.496;2023-03-01T08:07:21;21.23;;;12.25;;
25721;SDS011;13578;53.450;15.496;2023-03-01T08:10:21;25.98;;;13.57;;
25721;SDS011;13578;53.450;15.496;2023-03-01T08:13:22;22.05;;;12.40;;
25721;SDS011;13578;53.450;15.496;2023-03-01T08:16:23;21.85;;;11.57;;
25721;SDS011;13578;53.450;15.496;2023-03-01T08:19:24;29.52;;;12.68;;
25721;SDS011;13578;53.450;15.496;2023-03-01T08:22:24;22.20;;;11.63;;
25721;SDS011;13578;53.450;15.496;2023-03-01T08:25:25;32.13;;;12.45;;
25721;SDS011;13578;53.450;15.496;2023-03-01T08:28:25;26.67;;;12.40;;
25721;SDS011;13578;53.450;15.496;2023-03-01T08:31:28;20.77;;;11.77;;
25721;SDS011;13578;53.450;15.496;2023-03-01T08:34:36;23.30;;;13.95;;
25721;SDS011;13578;53.450;15.496;2023-03-01T08:37:37;25.40;;;11.93;;
25721;SDS011;13578;53.450;15.496;2023-03-01T08:40:38;25.15;;;11.70;;
25721;SDS011;13578;53.450;15.496;2023-03-01T08:43:38;28.23;;;12.23;;
25721;SDS011;13578;53.450;15.496;2023-03-01T08:46:40;28.73;;;12.60;;
25721;SDS011;13578;53.450;15.496;2023-03-01T08:49:42;26.27;;;13.45;;
25721;SDS011;13578;53.450;15.496;2023-03-01T08:52:42;26.73;;;12.40;;
25721;SDS011;13578;53.450;15.496;2023-03-01T08:55:43;23.48;;;11.73;;
25721;SDS011;13578;53.450;15.496;2023-03-01T08:58:44;26.40;;;11.77;;
25721;SDS011;13578;53.450;15.496;2023-03-01T09:01:46;21.42;;;11.23;;
25721;SDS011;13578;53.450;15.496;2023-03-01T09:04:47;33.60;;;13.18;;
25721;SDS011;13578;53.450;15.496;2023-03-01T09:07:47;24.20;;;12.90;;
25721;SDS011;13578;53.450;15.496;2023-03-01T09:10:48;29.48;;;13.02;;
25721;SDS011;13578;53.450;15.496;2023-03-01T09:13:49;27.65;;;11.38;;
25721;SDS011;13578;53.450;15.496;2023-03-01T09:16:49;33.72;;;11.38;;
25721;SDS011;13578;53.450;15.496;2023-03-01T09:19:50;23.85;;;13.25;;
25721;SDS011;13578;53.450;15.496;2023-03-01T09:22:51;33.83;;;11.98;;
25721;SDS011;13578;53.450;15.496;2023-03-01T09:25:52;21.50;;;12.18;;
25721;SDS011;13578;53.450;15.496;2023-03-01T09:28:55;24.63;;;9.85;;
25721;SDS011;13578;53.450;15.496;2023-03-01T09:31:56;22.10;;;11.02;;
25721;SDS011;13578;53.450;15.496;2023-03-01T09:34:58;24.83;;;11.02;;
25721;SDS011;13578;53.450;15.496;2023-03-01T09:38:04;22.48;;;10.60;;
25721;SDS011;13578;53.450;15.496;2023-03-01T09:47:58;24.13;;;11.93;;
25721;SDS011;13578;53.450;15.496;2023-03-01T09:51:02;23.17;;;9.98;;
25721;SDS011;13578;53.450;15.496;2023-03-01T09:54:12;22.88;;;11.52;;
25721;SDS011;13578;53.450;15.496;2023-03-01T09:57:20;23.15;;;11.15;;
25721;SDS011;13578;53.450;15.496;2023-03-01T10:00:39;26.00;;;10.52;;
25721;SDS011;13578;53.450;15.496;2023-03-01T10:03:44;26.17;;;11.15;;
25721;SDS011;13578;53.450;15.496;2023-03-01T10:10:14;24.67;;;10.85;;
25721;SDS011;13578;53.450;15.496;2023-03-01T10:17:48;23.00;;;11.32;;
25721;SDS011;13578;53.450;15.496;2023-03-01T10:20:41;30.00;;;10.30;;
25721;SDS011;13578;53.450;15.496;2023-03-01T10:23:43;36.72;;;10.60;;
25721;SDS011;13578;53.450;15.496;2023-03-01T10:27:01;26.45;;;11.18;;
25721;SDS011;13578;53.450;15.496;2023-03-01T10:33:20;20.48;;;10.45;;
25721;SDS011;13578;53.450;15.496;2023-03-01T10:36:24;22.65;;;11.13;;
25721;SDS011;13578;53.450;15.496;2023-03-01T10:39:25;42.55;;;13.88;;
25721;SDS011;13578;53.450;15.496;2023-03-01T10:42:28;26.67;;;11.15;;
25721;SDS011;13578;53.450;15.496;2023-03-01T10:45:35;25.80;;;9.95;;
25721;SDS011;13578;53.450;15.496;2023-03-01T10:48:37;22.08;;;9.63;;
25721;SDS011;13578;53.450;15.496;2023-03-01T10:51:42;20.83;;;10.57;;
25721;SDS011;13578;53.450;15.496;2023-03-01T10:54:50;16.65;;;8.60;;
25721;SDS011;13578;53.450;15.496;2023-03-01T11:04:22;20.60;;;8.98;;
25721;SDS011;13578;53.450;15.496;2023-03-01T11:07:23;18.52;;;9.25;;
25721;SDS011;13578;53.450;15.496;2023-03-01T11:10:41;17.33;;;8.57;;
25721;SDS011;13578;53.450;15.496;2023-03-01T11:13:50;19.65;;;10.02;;
25721;SDS011;13578;53.450;15.496;2023-03-01T11:23:25;16.65;;;8.40;;
25721;SDS011;13578;53.450;15.496;2023-03-01T11:26:29;16.42;;;7.25;;
25721;SDS011;13578;53.450;15.496;2023-03-01T11:29:38;13.30;;;7.97;;
25721;SDS011;13578;53.450;15.496;2023-03-01T11:32:53;19.13;;;7.22;;
25721;SDS011;13578;53.450;15.496;2023-03-01T11:36:16;15.43;;;7.85;;
25721;SDS011;13578;53.450;15.496;2023-03-01T11:50:14;14.75;;;7.72;;
25721;SDS011;13578;53.450;15.496;2023-03-01T11:57:32;18.73;;;7.78;;
25721;SDS011;13578;53.450;15.496;2023-03-01T12:01:12;20.02;;;7.60;;
25721;SDS011;13578;53.450;15.496;2023-03-01T12:07:23;12.05;;;7.00;;
25721;SDS011;13578;53.450;15.496;2023-03-01T12:10:36;14.77;;;7.20;;
25721;SDS011;13578;53.450;15.496;2023-03-01T12:13:47;15.02;;;7.32;;
25721;SDS011;13578;53.450;15.496;2023-03-01T12:17:03;12.23;;;6.97;;
25721;SDS011;13578;53.450;15.496;2023-03-01T12:20:23;13.90;;;6.65;;
25721;SDS011;13578;53.450;15.496;2023-03-01T12:31:08;14.68;;;7.20;;
25721;SDS011;13578;53.450;15.496;2023-03-01T12:37:33;14.95;;;7.85;;
25721;SDS011;13578;53.450;15.496;2023-03-01T12:40:46;11.50;;;7.38;;
25721;SDS011;13578;53.450;15.496;2023-03-01T12:43:56;15.27;;;7.45;;
25721;SDS011;13578;53.450;15.496;2023-03-01T12:47:11;16.00;;;8.30;;
25721;SDS011;13578;53.450;15.496;2023-03-01T12:50:37;18.40;;;8.80;;
25721;SDS011;13578;53.450;15.496;2023-03-01T12:53:42;12.70;;;7.28;;
25721;SDS011;13578;53.450;15.496;2023-03-01T12:56:47;13.20;;;5.78;;
25721;SDS011;13578;53.450;15.496;2023-03-01T13:03:38;14.48;;;8.05;;
25721;SDS011;13578;53.450;15.496;2023-03-01T13:16:27;12.38;;;7.15;;
25721;SDS011;13578;53.450;15.496;2023-03-01T13:19:43;15.38;;;7.78;;
25721;SDS011;13578;53.450;15.496;2023-03-01T13:23:07;16.30;;;7.60;;
25721;SDS011;13578;53.450;15.496;2023-03-01T13:26:14;24.05;;;7.93;;
25721;SDS011;13578;53.450;15.496;2023-03-01T13:29:26;12.95;;;7.30;;
25721;SDS011;13578;53.450;15.496;2023-03-01T13:32:30;16.75;;;7.30;;
25721;SDS011;13578;53.450;15.496;2023-03-01T13:35:42;16.27;;;7.60;;
25721;SDS011;13578;53.450;15.496;2023-03-01T13:38:46;12.35;;;7.10;;
25721;SDS011;13578;53.450;15.496;2023-03-01T13:41:57;14.32;;;7.35;;
25721;SDS011;13578;53.450;15.496;2023-03-01T13:45:00;13.00;;;7.93;;
25721;SDS011;13578;53.450;15.496;2023-03-01T13:51:26;13.55;;;7.85;;
25721;SDS011;13578;53.450;15.496;2023-03-01T13:54:29;11.50;;;5.65;;
25721;SDS011;13578;53.450;15.496;2023-03-01T13:57:36;13.18;;;6.30;;
25721;SDS011;13578;53.450;15.496;2023-03-01T14:00:39;15.95;;;8.30;;
25721;SDS011;13578;53.450;15.496;2023-03-01T14:03:41;13.52;;;5.95;;
25721;SDS011;13578;53.450;15.496;2023-03-01T14:06:42;8.45;;;5.57;;
25721;SDS011;13578;53.450;15.496;2023-03-01T14:09:43;8.93;;;5.22;;
25721;SDS011;13578;53.450;15.496;2023-03-01T14:16:25;10.60;;;6.10;;
25721;SDS011;13578;53.450;15.496;2023-03-01T14:19:35;10.38;;;6.03;;
25721;SDS011;13578;53.450;15.496;2023-03-01T14:22:36;11.15;;;5.95;;
25721;SDS011;13578;53.450;15.496;2023-03-01T14:25:45;12.43;;;5.90;;
25721;SDS011;13578;53.450;15.496;2023-03-01T14:28:49;7.93;;;5.03;;
25721;SDS011;13578;53.450;15.496;2023-03-01T14:31:50;12.07;;;5.25;;
25721;SDS011;13578;53.450;15.496;2023-03-01T14:34:51;13.70;;;5.88;;
25721;SDS011;13578;53.450;15.496;2023-03-01T14:37:52;12.18;;;5.97;;
25721;SDS011;13578;53.450;15.496;2023-03-01T14:40:54;10.05;;;6.28;;
25721;SDS011;13578;53.450;15.496;2023-03-01T14:44:03;9.40;;;5.93;;
25721;SDS011;13578;53.450;15.496;2023-03-01T14:47:16;9.98;;;5.45;;
25721;SDS011;13578;53.450;15.496;2023-03-01T14:50:27;8.48;;;4.75;;
25721;SDS011;13578;53.450;15.496;2023-03-01T14:53:29;6.85;;;4.70;;
25721;SDS011;13578;53.450;15.496;2023-03-01T14:56:37;18.63;;;6.55;;
25721;SDS011;13578;53.450;15.496;2023-03-01T14:59:44;9.07;;;4.28;;
25721;SDS011;13578;53.450;15.496;2023-03-01T15:02:48;9.73;;;4.93;;
25721;SDS011;13578;53.450;15.496;2023-03-01T15:05:51;9.70;;;5.07;;
25721;SDS011;13578;53.450;15.496;2023-03-01T15:08:53;14.27;;;6.70;;
25721;SDS011;13578;53.450;15.496;2023-03-01T15:11:56;12.27;;;6.20;;
25721;SDS011;13578;53.450;15.496;2023-03-01T15:14:57;11.07;;;6.05;;
25721;SDS011;13578;53.450;15.496;2023-03-01T15:18:00;11.98;;;6.43;;
25721;SDS011;13578;53.450;15.496;2023-03-01T15:21:07;11.32;;;6.60;;
25721;SDS011;13578;53.450;15.496;2023-03-01T15:27:30;13.70;;;5.38;;
25721;SDS011;13578;53.450;15.496;2023-03-01T15:30:31;11.23;;;4.85;;
25721;SDS011;13578;53.450;15.496;2023-03-01T15:33:37;10.63;;;5.32;;
25721;SDS011;13578;53.450;15.496;2023-03-01T15:36:43;9.43;;;4.97;;
25721;SDS011;13578;53.450;15.496;2023-03-01T15:39:55;12.32;;;6.30;;
25721;SDS011;13578;53.450;15.496;2023-03-01T15:43:01;12.75;;;6.10;;
25721;SDS011;13578;53.450;15.496;2023-03-01T15:49:05;12.38;;;6.10;;
25721;SDS011;13578;53.450;15.496;2023-03-01T15:52:26;12.15;;;5.22;;
25721;SDS011;13578;53.450;15.496;2023-03-01T15:55:30;14.52;;;7.45;;
25721;SDS011;13578;53.450;15.496;2023-03-01T15:58:33;12.70;;;6.72;;
25721;SDS011;13578;53.450;15.496;2023-03-01T16:01:33;13.35;;;7.68;;
25721;SDS011;13578;53.450;15.496;2023-03-01T16:04:34;16.13;;;8.20;;
25721;SDS011;13578;53.450;15.496;2023-03-01T16:07:35;27.00;;;9.55;;
25721;SDS011;13578;53.450;15.496;2023-03-01T16:10:40;11.00;;;6.18;;
25721;SDS011;13578;53.450;15.496;2023-03-01T16:13:43;7.72;;;4.95;;
25721;SDS011;13578;53.450;15.496;2023-03-01T16:16:46;8.05;;;5.13;;
25721;SDS011;13578;53.450;15.496;2023-03-01T16:19:48;16.88;;;5.60;;
25721;SDS011;13578;53.450;15.496;2023-03-01T16:22:48;17.77;;;7.40;;
25721;SDS011;13578;53.450;15.496;2023-03-01T16:25:49;16.45;;;8.40;;
25721;SDS011;13578;53.450;15.496;2023-03-01T16:28:50;10.13;;;5.90;;
25721;SDS011;13578;53.450;15.496;2023-03-01T16:31:54;10.60;;;6.63;;
25721;SDS011;13578;53.450;15.496;2023-03-01T16:34:54;10.73;;;5.65;;
25721;SDS011;13578;53.450;15.496;2023-03-01T16:37:57;9.35;;;5.38;;
25721;SDS011;13578;53.450;15.496;2023-03-01T16:41:00;9.45;;;5.18;;
25721;SDS011;13578;53.450;15.496;2023-03-01T16:44:00;7.90;;;5.07;;
25721;SDS011;13578;53.450;15.496;2023-03-01T16:47:01;6.97;;;5.03;;
25721;SDS011;13578;53.450;15.496;2023-03-01T16:50:02;8.75;;;5.13;;
25721;SDS011;13578;53.450;15.496;2023-03-01T16:53:02;9.20;;;5.85;;
25721;SDS011;13578;53.450;15.496;2023-03-01T16:56:08;15.98;;;7.65;;
25721;SDS011;13578;53.450;15.496;2023-03-01T16:59:10;13.98;;;5.70;;
25721;SDS011;13578;53.450;15.496;2023-03-01T17:02:11;12.02;;;6.72;;
25721;SDS011;13578;53.450;15.496;2023-03-01T17:05:13;9.43;;;5.50;;
25721;SDS011;13578;53.450;15.496;2023-03-01T17:08:13;8.40;;;5.35;;
25721;SDS011;13578;53.450;15.496;2023-03-01T17:11:16;8.05;;;4.63;;
25721;SDS011;13578;53.450;15.496;2023-03-01T17:14:18;10.18;;;4.95;;
25721;SDS011;13578;53.450;15.496;2023-03-01T17:17:19;8.07;;;4.70;;
25721;SDS011;13578;53.450;15.496;2023-03-01T17:20:20;10.80;;;4.60;;
25721;SDS011;13578;53.450;15.496;2023-03-01T17:23:21;7.55;;;4.55;;
25721;SDS011;13578;53.450;15.496;2023-03-01T17:26:21;6.38;;;4.35;;
25721;SDS011;13578;53.450;15.496;2023-03-01T17:29:22;7.82;;;4.75;;
25721;SDS011;13578;53.450;15.496;2023-03-01T17:32:23;12.38;;;4.82;;
25721;SDS011;13578;53.450;15.496;2023-03-01T17:35:23;10.77;;;5.05;;
25721;SDS011;13578;53.450;15.496;2023-03-01T17:38:24;8.77;;;5.85;;
25721;SDS011;13578;53.450;15.496;2023-03-01T17:41:25;6.50;;;4.28;;
25721;SDS011;13578;53.450;15.496;2023-03-01T17:44:28;11.50;;;5.07;;
25721;SDS011;13578;53.450;15.496;2023-03-01T17:47:29;7.93;;;5.22;;
25721;SDS011;13578;53.450;15.496;2023-03-01T17:50:29;8.35;;;4.75;;
25721;SDS011;13578;53.450;15.496;2023-03-01T17:53:30;10.48;;;5.90;;
25721;SDS011;13578;53.450;15.496;2023-03-01T17:56:31;10.65;;;5.05;;
25721;SDS011;13578;53.450;15.496;2023-03-01T17:59:35;6.10;;;4.65;;
25721;SDS011;13578;53.450;15.496;2023-03-01T18:02:36;6.63;;;4.57;;
25721;SDS011;13578;53.450;15.496;2023-03-01T18:05:36;5.70;;;5.03;;
25721;SDS011;13578;53.450;15.496;2023-03-01T18:08:37;8.35;;;5.28;;
25721;SDS011;13578;53.450;15.496;2023-03-01T18:11:38;8.70;;;5.75;;
25721;SDS011;13578;53.450;15.496;2023-03-01T18:14:41;22.25;;;11.35;;
25721;SDS011;13578;53.450;15.496;2023-03-01T18:17:41;37.72;;;17.05;;
25721;SDS011;13578;53.450;15.496;2023-03-01T18:20:42;29.10;;;13.68;;
25721;SDS011;13578;53.450;15.496;2023-03-01T18:23:42;16.30;;;8.38;;
25721;SDS011;13578;53.450;15.496;2023-03-01T18:26:43;11.55;;;7.07;;
25721;SDS011;13578;53.450;15.496;2023-03-01T18:29:44;15.32;;;7.82;;
25721;SDS011;13578;53.450;15.496;2023-03-01T18:32:44;13.32;;;7.45;;
25721;SDS011;13578;53.450;15.496;2023-03-01T18:35:45;14.23;;;7.60;;
25721;SDS011;13578;53.450;15.496;2023-03-01T18:38:47;14.18;;;7.75;;
25721;SDS011;13578;53.450;15.496;2023-03-01T18:41:48;13.98;;;8.23;;
25721;SDS011;13578;53.450;15.496;2023-03-01T18:44:49;13.25;;;8.18;;
25721;SDS011;13578;53.450;15.496;2023-03-01T18:47:50;14.10;;;7.90;;
25721;SDS011;13578;53.450;15.496;2023-03-01T18:50:51;17.77;;;8.70;;
25721;SDS011;13578;53.450;15.496;2023-03-01T18:53:52;18.05;;;9.52;;
25721;SDS011;13578;53.450;15.496;2023-03-01T18:56:52;16.08;;;8.93;;
25721;SDS011;13578;53.450;15.496;2023-03-01T18:59:53;14.40;;;7.43;;
25721;SDS011;13578;53.450;15.496;2023-03-01T19:02:53;25.23;;;10.63;;
25721;SDS011;13578;53.450;15.496;2023-03-01T19:05:54;16.95;;;9.23;;
25721;SDS011;13578;53.450;15.496;2023-03-01T19:08:56;14.73;;;10.20;;
25721;SDS011;13578;53.450;15.496;2023-03-01T19:11:56;18.55;;;9.88;;
25721;SDS011;13578;53.450;15.496;2023-03-01T19:14:59;23.48;;;11.25;;
25721;SDS011;13578;53.450;15.496;2023-03-01T19:18:00;20.60;;;10.85;;
25721;SDS011;13578;53.450;15.496;2023-03-01T19:21:03;17.70;;;10.25;;